createdAt,value
2024-03-13T00:01:57.824Z,2.03
2024-03-13T00:04:26.171Z,2.05
2024-03-13T00:09:25.927Z,2.03
2024-03-13T00:11:54.021Z,2.17
2024-03-13T00:14:22.247Z,2.08
2024-03-13T00:16:49.851Z,2.00
2024-03-13T00:19:17.397Z,1.83
2024-03-13T00:21:44.893Z,2.17
2024-03-13T00:24:13.782Z,2.15
2024-03-13T00:26:51.046Z,2.17
2024-03-13T00:29:18.556Z,2.22
2024-03-13T00:31:46.313Z,2.40
2024-03-13T00:34:13.999Z,1.80
2024-03-13T00:36:41.615Z,2.38
2024-03-13T00:39:09.220Z,1.73
2024-03-13T00:41:40.034Z,2.25
2024-03-13T00:44:08.212Z,1.85
2024-03-13T00:46:35.928Z,1.70
2024-03-13T00:49:03.534Z,1.80
2024-03-13T00:51:32.137Z,2.53
2024-03-13T00:54:05.356Z,2.00
2024-03-13T00:56:33.614Z,2.22
2024-03-13T01:01:29.987Z,1.65
2024-03-13T01:03:59.212Z,2.40
2024-03-13T01:06:29.901Z,1.80
2024-03-13T01:08:58.466Z,1.65
2024-03-13T01:11:26.951Z,1.42
2024-03-13T01:13:54.475Z,1.15
2024-03-13T01:16:23.961Z,1.20
2024-03-13T01:18:51.551Z,1.33
2024-03-13T01:21:22.289Z,1.88
2024-03-13T01:23:49.875Z,1.60
2024-03-13T01:26:17.517Z,1.58
2024-03-13T01:28:45.103Z,1.42
2024-03-13T01:31:12.721Z,1.50
2024-03-13T01:33:41.597Z,1.35
2024-03-13T01:36:09.571Z,1.17
2024-03-13T01:38:36.376Z,1.92
2024-03-13T01:41:21.732Z,1.67
2024-03-13T01:44:13.765Z,1.45
2024-03-13T01:46:59.176Z,1.65
2024-03-13T01:49:46.073Z,1.67
2024-03-13T01:52:35.486Z,1.60
2024-03-13T01:55:11.571Z,1.67
2024-03-13T01:58:09.190Z,1.55
2024-03-13T02:00:55.400Z,1.30
2024-03-13T02:03:28.004Z,1.13
2024-03-13T02:06:17.364Z,1.38
2024-03-13T02:08:46.748Z,1.52
2024-03-13T02:11:14.356Z,2.20
2024-03-13T02:13:41.967Z,1.50
2024-03-13T02:16:10.806Z,1.52
2024-03-13T02:18:38.357Z,2.50
2024-03-13T02:21:08.965Z,1.60
2024-03-13T02:23:36.647Z,2.05
2024-03-13T02:26:05.042Z,1.80
2024-03-13T02:28:33.665Z,1.63
2024-03-13T02:31:01.911Z,1.58
2024-03-13T02:33:29.605Z,1.35
2024-03-13T02:35:57.255Z,1.55
2024-03-13T02:38:24.884Z,1.50
2024-03-13T02:40:55.251Z,1.50
2024-03-13T02:43:23.120Z,1.10
2024-03-13T02:45:50.973Z,1.40
2024-03-13T02:48:18.616Z,1.70
2024-03-13T02:50:46.304Z,2.03
2024-03-13T02:53:14.004Z,1.95
2024-03-13T02:55:44.633Z,1.80
2024-03-13T02:58:13.180Z,2.15
2024-03-13T03:00:41.005Z,2.35
2024-03-13T03:03:12.440Z,1.85
2024-03-13T03:05:40.257Z,1.48
2024-03-13T03:08:08.239Z,1.80
2024-03-13T03:10:36.401Z,1.80
2024-03-13T03:13:05.276Z,1.52
2024-03-13T03:15:35.841Z,1.92
2024-03-13T03:18:04.790Z,1.73
2024-03-13T03:20:32.986Z,2.35
2024-03-13T03:23:00.764Z,1.73
2024-03-13T03:25:30.331Z,2.10
2024-03-13T03:27:59.066Z,1.83
2024-03-13T03:30:31.204Z,2.20
2024-03-13T03:32:59.487Z,2.00
2024-03-13T03:35:28.755Z,2.35
2024-03-13T03:37:56.557Z,2.67
2024-03-13T03:40:24.765Z,1.98
2024-03-13T03:42:52.796Z,2.63
2024-03-13T03:45:20.521Z,3.08
2024-03-13T03:47:54.490Z,2.13
2024-03-13T03:50:25.531Z,2.45
2024-03-13T03:52:53.592Z,3.45
2024-03-13T03:55:22.793Z,1.63
2024-03-13T03:57:50.811Z,2.40
2024-03-13T04:00:18.895Z,2.22
2024-03-13T04:02:46.572Z,2.58
2024-03-13T04:05:14.989Z,3.60
2024-03-13T04:07:43.398Z,3.20
2024-03-13T04:10:11.262Z,2.88
2024-03-13T04:12:39.871Z,3.20
2024-03-13T04:15:08.110Z,2.80
2024-03-13T04:20:04.727Z,2.90
2024-03-13T04:22:33.211Z,2.88
2024-03-13T04:25:01.112Z,3.10
2024-03-13T04:27:28.891Z,3.67
2024-03-13T04:29:56.558Z,3.42
2024-03-13T04:32:26.294Z,3.08
2024-03-13T04:34:54.174Z,3.00
2024-03-13T04:37:24.429Z,3.88
2024-03-13T04:39:52.333Z,3.28
2024-03-13T04:42:20.703Z,3.00
2024-03-13T04:47:17.277Z,3.08
2024-03-13T04:49:44.960Z,3.30
2024-03-13T04:52:12.629Z,3.33
2024-03-13T04:54:40.852Z,2.63
2024-03-13T04:57:08.523Z,3.78
2024-03-13T04:59:37.288Z,3.05
2024-03-13T05:02:05.181Z,3.10
2024-03-13T05:04:33.133Z,2.72
2024-03-13T05:07:03.409Z,2.95
2024-03-13T05:09:31.390Z,3.13
2024-03-13T05:11:59.225Z,2.70
2024-03-13T05:14:27.070Z,2.80
2024-03-13T05:16:55.264Z,2.60
2024-03-13T05:19:24.035Z,3.03
2024-03-13T05:21:52.597Z,2.67
2024-03-13T05:24:20.297Z,3.30
2024-03-13T05:26:47.991Z,2.88
2024-03-13T05:29:15.850Z,3.05
2024-03-13T05:31:43.588Z,3.55
2024-03-13T05:34:11.716Z,2.45
2024-03-13T05:36:39.486Z,4.15
2024-03-13T05:39:07.291Z,3.00
2024-03-13T05:41:36.050Z,3.00
2024-03-13T05:44:03.814Z,2.25
2024-03-13T05:46:31.477Z,3.45
2024-03-13T05:48:59.495Z,2.40
2024-03-13T05:51:27.532Z,3.40
2024-03-13T05:53:55.312Z,2.88
2024-03-13T05:56:22.944Z,2.72
2024-03-13T05:58:50.689Z,2.25
2024-03-13T06:01:23.580Z,2.20
2024-03-13T06:03:54.636Z,3.35
2024-03-13T06:06:23.434Z,2.97
2024-03-13T06:08:51.125Z,2.75
2024-03-13T06:11:20.076Z,2.63
2024-03-13T06:13:48.067Z,2.60
2024-03-13T06:16:16.378Z,2.85
2024-03-13T06:18:44.088Z,2.95
2024-03-13T06:21:11.878Z,2.72
2024-03-13T06:23:48.796Z,2.97
2024-03-13T06:26:18.209Z,2.90
2024-03-13T06:29:03.389Z,2.45
2024-03-13T06:31:31.071Z,2.50
2024-03-13T06:34:00.447Z,2.13
2024-03-13T06:36:28.270Z,3.70
2024-03-13T06:38:55.915Z,1.90
2024-03-13T06:41:24.838Z,2.45
2024-03-13T06:43:52.798Z,2.67
2024-03-13T06:46:20.527Z,2.15
2024-03-13T06:48:48.268Z,2.38
2024-03-13T06:51:15.943Z,2.17
2024-03-13T06:53:44.474Z,2.60
2024-03-13T06:56:12.231Z,2.33
2024-03-13T06:58:39.924Z,2.25
2024-03-13T07:01:14.083Z,2.75
2024-03-13T07:03:42.625Z,2.10
2024-03-13T07:08:40.848Z,1.50
2024-03-13T07:11:08.660Z,1.95
2024-03-13T07:13:36.530Z,2.03
2024-03-13T07:16:04.356Z,1.98
2024-03-13T07:18:32.122Z,1.95
2024-03-13T07:20:59.817Z,2.15
2024-03-13T07:23:28.140Z,1.48
2024-03-13T07:25:56.503Z,1.95
2024-03-13T07:28:24.289Z,1.85
2024-03-13T07:30:52.038Z,2.08
2024-03-13T07:33:19.801Z,1.70
2024-03-13T07:35:48.000Z,1.90
2024-03-13T07:40:43.489Z,1.60
2024-03-13T07:43:11.417Z,2.60
2024-03-13T07:45:40.918Z,1.63
2024-03-13T07:48:09.586Z,1.77
2024-03-13T07:50:37.887Z,1.95
2024-03-13T07:55:33.994Z,2.58
2024-03-13T07:58:03.839Z,1.60
2024-03-13T08:00:36.382Z,1.50
2024-03-13T08:03:04.257Z,1.70
2024-03-13T08:05:33.013Z,1.58
2024-03-13T09:06:07.858Z,2.25
2024-03-13T09:08:44.383Z,7.10
2024-03-13T09:11:18.104Z,1.85
2024-03-13T09:13:46.555Z,1.90
2024-03-13T09:16:14.539Z,1.63
2024-03-13T09:18:42.548Z,1.98
2024-03-13T09:23:38.372Z,4.05
2024-03-13T09:26:06.084Z,1.80
2024-03-13T09:28:33.814Z,1.50
2024-03-13T09:31:03.696Z,1.27
2024-03-13T09:33:32.641Z,2.67
2024-03-13T09:36:01.799Z,4.72
2024-03-13T09:38:29.902Z,2.28
2024-03-13T09:40:57.693Z,2.03
2024-03-13T09:43:25.542Z,1.88
2024-03-13T09:45:53.340Z,2.45
2024-03-13T09:48:21.167Z,3.50
2024-03-13T09:50:54.201Z,2.00
2024-03-13T09:53:23.008Z,1.63
2024-03-13T09:58:18.696Z,1.95
2024-03-13T10:00:46.751Z,2.53
2024-03-13T10:05:48.500Z,1.65
2024-03-13T10:08:16.190Z,2.67
2024-03-13T10:10:46.195Z,1.77
2024-03-13T10:13:15.472Z,3.63
2024-03-13T10:18:11.729Z,2.22
2024-03-13T10:20:39.670Z,6.90
2024-03-13T10:23:07.371Z,3.33
2024-03-13T10:25:36.498Z,3.47
2024-03-13T10:28:05.397Z,2.15
2024-03-13T10:30:33.109Z,2.75
2024-03-13T10:33:01.275Z,3.40
2024-03-13T10:35:29.061Z,3.65
2024-03-13T10:37:57.707Z,2.80
2024-03-13T10:40:26.173Z,3.10
2024-03-13T10:42:53.934Z,3.25
2024-03-13T10:45:21.698Z,3.30
2024-03-13T10:47:51.095Z,1.75
2024-03-13T10:50:18.916Z,2.58
2024-03-13T10:52:46.648Z,2.58
2024-03-13T10:55:14.745Z,5.15
2024-03-13T10:57:43.916Z,3.15
2024-03-13T11:00:12.921Z,8.88
2024-03-13T11:02:40.743Z,7.82
2024-03-13T11:05:11.427Z,2.58
2024-03-13T11:07:39.457Z,5.13
2024-03-13T11:12:34.823Z,3.08
2024-03-13T11:15:02.562Z,1.73
2024-03-13T11:17:30.315Z,2.25
2024-03-13T11:19:58.057Z,2.47
2024-03-13T11:22:25.938Z,2.78
2024-03-13T11:24:53.818Z,2.40
2024-03-13T11:27:21.542Z,3.53
2024-03-13T11:29:50.534Z,6.15
2024-03-13T11:32:18.649Z,4.90
2024-03-13T11:34:46.426Z,2.45
2024-03-13T11:37:14.164Z,2.95
2024-03-13T11:39:42.189Z,3.15
2024-03-13T11:44:43.776Z,3.20
2024-03-13T11:47:12.685Z,2.70
2024-03-13T11:49:41.381Z,3.05
2024-03-13T11:52:12.600Z,3.35
2024-03-13T11:54:41.329Z,3.20
2024-03-13T11:57:09.310Z,2.97
2024-03-13T12:02:08.112Z,3.22
2024-03-13T12:04:38.815Z,4.20
2024-03-13T12:07:07.400Z,4.43
2024-03-13T12:09:35.042Z,3.75
2024-03-13T12:12:05.491Z,2.97
2024-03-13T12:14:33.303Z,3.60
2024-03-13T12:17:01.194Z,4.05
2024-03-13T12:19:29.327Z,5.13
2024-03-13T12:21:58.221Z,3.95
2024-03-13T12:24:27.195Z,3.80
2024-03-13T12:26:54.994Z,5.10
2024-03-13T12:29:24.037Z,6.97
2024-03-13T12:31:53.079Z,4.97
2024-03-13T12:34:20.976Z,19.25
2024-03-13T12:36:48.664Z,4.75
2024-03-13T12:39:18.832Z,3.40
2024-03-13T12:41:46.895Z,3.08
2024-03-13T12:44:22.443Z,3.50
2024-03-13T12:46:50.218Z,3.33
2024-03-13T12:49:17.991Z,5.45
2024-03-13T12:51:45.930Z,4.00
2024-03-13T12:54:15.464Z,6.68
2024-03-13T12:56:44.378Z,6.18
2024-03-13T12:59:12.835Z,9.98
2024-03-13T13:01:40.609Z,2.55
2024-03-13T13:06:37.022Z,3.47
2024-03-13T13:09:09.596Z,3.65
2024-03-13T13:11:42.001Z,6.18
2024-03-13T13:14:12.387Z,4.28
2024-03-13T13:16:40.907Z,4.45
2024-03-13T13:19:08.833Z,2.80
2024-03-13T13:24:05.323Z,5.32
2024-03-13T13:26:33.013Z,3.97
2024-03-13T13:31:31.276Z,3.65
2024-03-13T13:33:59.031Z,3.03
2024-03-13T13:36:26.894Z,3.70
2024-03-13T13:38:54.719Z,3.33
2024-03-13T13:41:22.517Z,4.65
2024-03-13T13:43:50.241Z,3.33
2024-03-13T13:46:18.051Z,5.47
2024-03-13T13:48:45.831Z,4.63
2024-03-13T13:51:13.774Z,3.50
2024-03-13T13:53:41.536Z,4.70
2024-03-13T13:56:09.647Z,3.92
2024-03-13T13:58:38.385Z,3.22
2024-03-13T14:01:06.539Z,2.90
2024-03-13T14:03:34.282Z,4.43
2024-03-13T14:06:02.537Z,4.85
2024-03-13T14:08:30.702Z,4.13
2024-03-13T14:11:01.580Z,4.57
2024-03-13T14:13:30.569Z,3.10
2024-03-13T14:15:58.260Z,3.67
2024-03-13T14:18:26.061Z,3.35
2024-03-13T14:20:53.851Z,3.53
2024-03-13T14:23:21.606Z,4.40
2024-03-13T14:25:49.270Z,4.55
2024-03-13T14:28:17.265Z,3.63
2024-03-13T14:33:13.586Z,3.40
2024-03-13T14:35:43.608Z,4.13
2024-03-13T14:38:13.692Z,2.90
2024-03-13T14:40:41.366Z,4.55
2024-03-13T14:43:10.663Z,4.75
2024-03-13T14:45:38.638Z,3.63
2024-03-13T14:48:08.061Z,3.97
2024-03-13T14:50:36.075Z,3.53
2024-03-13T14:53:06.648Z,3.53
2024-03-13T14:55:35.328Z,3.88
2024-03-13T14:58:04.373Z,4.53
2024-03-13T15:00:32.589Z,4.10
2024-03-13T15:05:32.181Z,4.32
2024-03-13T15:08:02.644Z,4.53
2024-03-13T15:10:31.134Z,5.00
2024-03-13T15:12:59.471Z,7.93
2024-03-13T15:15:27.592Z,6.13
2024-03-13T15:17:55.872Z,5.80
2024-03-13T15:20:23.878Z,5.25
2024-03-13T15:22:51.555Z,5.22
2024-03-13T15:25:19.293Z,5.00
2024-03-13T15:27:47.170Z,6.10
2024-03-13T15:30:16.756Z,5.25
2024-03-13T15:32:45.483Z,6.45
2024-03-13T15:35:14.591Z,4.93
2024-03-13T15:37:42.301Z,5.80
2024-03-13T15:40:12.390Z,5.60
2024-03-13T15:42:41.185Z,6.65
2024-03-13T15:45:09.483Z,5.50
2024-03-13T15:47:38.814Z,5.03
2024-03-13T15:50:13.388Z,5.97
2024-03-13T15:55:16.889Z,6.05
2024-03-13T15:57:44.599Z,5.28
2024-03-13T16:00:17.282Z,5.35
2024-03-13T16:02:46.469Z,6.00
2024-03-13T16:05:14.345Z,5.13
2024-03-13T16:07:42.492Z,6.00
2024-03-13T16:10:10.550Z,6.88
2024-03-13T16:15:07.224Z,5.35
2024-03-13T16:17:35.718Z,7.07
2024-03-13T16:20:03.452Z,5.88
2024-03-13T16:22:31.143Z,6.32
2024-03-13T16:24:58.981Z,6.40
2024-03-13T16:27:26.949Z,7.90
2024-03-13T16:29:54.668Z,7.10
2024-03-13T16:32:22.533Z,8.15
2024-03-13T16:34:50.288Z,6.43
2024-03-13T16:37:18.031Z,6.68
2024-03-13T16:39:46.162Z,8.05
2024-03-13T16:42:13.891Z,7.18
2024-03-13T16:44:41.685Z,7.97
2024-03-13T16:47:09.748Z,6.70
2024-03-13T16:49:37.516Z,6.65
2024-03-13T16:52:05.389Z,7.13
2024-03-13T16:54:33.062Z,7.25
2024-03-13T16:57:00.875Z,6.65
2024-03-13T16:59:28.584Z,6.05
2024-03-13T17:01:56.251Z,6.38
2024-03-13T17:04:23.932Z,6.45
2024-03-13T17:06:51.713Z,6.90
2024-03-13T17:09:19.472Z,6.38
2024-03-13T17:11:48.258Z,6.18
2024-03-13T17:14:15.953Z,5.30
2024-03-13T17:16:43.639Z,5.00
2024-03-13T17:19:11.606Z,5.68
2024-03-13T17:21:40.201Z,5.47
2024-03-13T17:24:09.803Z,5.50
2024-03-13T17:26:37.513Z,5.50
2024-03-13T17:29:05.334Z,4.75
2024-03-13T17:31:33.230Z,4.75
2024-03-13T17:34:01.362Z,4.22
2024-03-13T17:36:29.536Z,4.50
2024-03-13T17:41:25.664Z,4.68
2024-03-13T17:43:53.362Z,4.70
2024-03-13T17:46:21.065Z,4.57
2024-03-13T17:48:48.942Z,4.32
2024-03-13T17:51:16.849Z,4.15
2024-03-13T17:53:44.602Z,4.53
2024-03-13T17:56:12.358Z,4.90
2024-03-13T17:58:41.521Z,3.83
2024-03-13T18:01:09.857Z,4.45
2024-03-13T18:03:37.571Z,6.63
2024-03-13T18:06:06.177Z,3.60
2024-03-13T18:08:36.741Z,3.47
2024-03-13T18:11:04.525Z,3.92
2024-03-13T18:13:37.869Z,3.63
2024-03-13T18:16:08.657Z,3.25
2024-03-13T18:18:36.510Z,3.50
2024-03-13T18:21:05.377Z,3.75
2024-03-13T18:23:33.805Z,3.78
2024-03-13T18:26:01.484Z,4.28
2024-03-13T18:28:29.725Z,3.53
2024-03-13T18:30:57.737Z,3.53
2024-03-13T18:35:53.029Z,4.32
2024-03-13T18:38:20.909Z,3.95
2024-03-13T18:40:48.753Z,3.83
2024-03-13T18:43:16.484Z,3.05
2024-03-13T18:45:44.197Z,3.38
2024-03-13T18:48:12.244Z,3.15
2024-03-13T18:50:40.104Z,3.55
2024-03-13T18:53:08.520Z,12.02
2024-03-13T18:55:36.784Z,3.33
2024-03-13T18:58:04.533Z,2.67
2024-03-13T19:00:32.657Z,3.63
2024-03-13T19:03:02.342Z,3.22
2024-03-13T19:05:30.012Z,2.55
2024-03-13T19:07:58.232Z,2.92
2024-03-13T19:10:28.188Z,3.35
2024-03-13T19:12:59.248Z,3.83
2024-03-13T19:15:31.296Z,3.58
2024-03-13T19:20:31.198Z,5.15
2024-03-13T19:23:04.023Z,4.32
2024-03-13T19:25:33.158Z,3.17
2024-03-13T19:30:29.716Z,3.42
2024-03-13T19:32:57.720Z,2.85
2024-03-13T19:35:26.297Z,2.83
2024-03-13T19:37:53.959Z,3.40
2024-03-13T19:40:21.947Z,3.38
2024-03-13T19:42:49.806Z,3.20
2024-03-13T19:45:17.662Z,3.70
2024-03-13T19:47:46.693Z,3.70
2024-03-13T19:50:14.730Z,3.22
2024-03-13T19:52:44.528Z,3.15
2024-03-13T19:55:14.062Z,3.42
2024-03-13T19:57:42.377Z,3.65
2024-03-13T20:00:14.928Z,3.58
2024-03-13T20:02:44.489Z,3.35
2024-03-13T20:05:13.807Z,2.83
2024-03-13T20:07:43.386Z,3.38
2024-03-13T20:10:12.508Z,3.80
2024-03-13T20:12:40.999Z,3.75
2024-03-13T20:15:09.453Z,4.05
2024-03-13T20:17:37.965Z,4.07
2024-03-13T20:20:06.976Z,5.00
2024-03-13T20:22:36.593Z,4.55
2024-03-13T20:25:04.727Z,3.42
2024-03-13T20:27:32.443Z,3.45
2024-03-13T20:30:00.265Z,3.17
2024-03-13T20:32:28.327Z,2.90
2024-03-13T20:34:56.077Z,2.97
2024-03-13T20:37:26.486Z,2.95
2024-03-13T20:39:54.224Z,2.55
2024-03-13T20:42:21.992Z,3.25
2024-03-13T20:44:49.756Z,3.10
2024-03-13T20:47:17.468Z,2.53
2024-03-13T20:49:45.497Z,2.50
2024-03-13T20:52:13.899Z,3.28
2024-03-13T20:54:42.019Z,2.33
2024-03-13T20:59:38.760Z,2.45
2024-03-13T21:02:08.583Z,2.38
2024-03-13T21:04:36.491Z,2.00
2024-03-13T21:07:04.189Z,2.25
2024-03-13T21:09:31.962Z,2.63
2024-03-13T21:11:59.800Z,2.40
2024-03-13T21:14:27.806Z,2.25
2024-03-13T21:16:55.471Z,2.40
2024-03-13T21:19:23.223Z,2.42
2024-03-13T21:21:50.993Z,2.45
2024-03-13T21:24:19.342Z,3.20
2024-03-13T21:26:48.338Z,2.72
2024-03-13T21:29:16.371Z,2.58
2024-03-13T21:36:51.895Z,1.77
2024-03-13T21:39:22.389Z,2.65
2024-03-13T21:41:50.526Z,2.25
2024-03-13T21:44:18.282Z,2.90
2024-03-13T21:46:45.923Z,2.25
2024-03-13T21:49:14.326Z,2.88
2024-03-13T21:51:43.074Z,2.20
2024-03-13T21:54:11.769Z,2.10
2024-03-13T21:56:41.399Z,2.50
2024-03-13T21:59:09.206Z,2.20
2024-03-13T22:01:36.907Z,2.63
2024-03-13T22:04:04.744Z,2.92
2024-03-13T22:06:32.485Z,2.53
2024-03-13T22:09:00.260Z,2.60
2024-03-13T22:11:28.078Z,2.65
2024-03-13T22:13:55.771Z,1.98
2024-03-13T22:16:24.097Z,2.33
2024-03-13T22:18:52.334Z,2.38
2024-03-13T22:21:20.070Z,2.38
2024-03-13T22:23:47.743Z,2.78
2024-03-13T22:26:18.959Z,3.00
2024-03-13T22:28:46.627Z,2.20
2024-03-13T22:31:14.326Z,2.40
2024-03-13T22:33:42.105Z,2.58
2024-03-13T22:36:13.590Z,2.53
2024-03-13T22:38:41.285Z,2.28
2024-03-13T22:41:09.000Z,2.63
2024-03-13T22:43:36.727Z,2.50
2024-03-13T22:46:05.103Z,2.70
2024-03-13T22:48:33.283Z,3.00
2024-03-13T22:51:01.221Z,2.80
2024-03-13T22:53:29.865Z,2.30
2024-03-13T22:55:58.381Z,2.72
2024-03-13T22:58:26.053Z,2.88
2024-03-13T23:00:59.038Z,2.38
2024-03-13T23:03:27.776Z,2.50
2024-03-13T23:05:55.693Z,2.60
2024-03-13T23:08:23.456Z,2.53
2024-03-13T23:10:51.371Z,3.42
2024-03-13T23:13:21.289Z,2.65
2024-03-13T23:15:50.865Z,3.25
2024-03-13T23:18:18.938Z,2.72
2024-03-13T23:23:14.339Z,2.40
2024-03-13T23:25:42.368Z,2.58
2024-03-13T23:30:37.907Z,2.28
2024-03-13T23:33:05.968Z,2.75
2024-03-13T23:38:02.701Z,1.83
2024-03-13T23:40:31.203Z,2.25
2024-03-13T23:42:58.883Z,2.30
2024-03-13T23:45:27.829Z,2.60
2024-03-13T23:47:56.009Z,2.42
2024-03-13T23:50:25.810Z,2.33
2024-03-13T23:52:53.502Z,2.42
2024-03-13T23:55:21.222Z,2.65
2024-03-13T23:57:48.881Z,2.15
